createdAt,value
2024-04-14T00:01:39.602Z,9.81
2024-04-14T00:04:06.615Z,10.02
2024-04-14T00:06:33.599Z,10.08
2024-04-14T00:09:00.519Z,9.77
2024-04-14T00:11:27.380Z,9.30
2024-04-14T00:13:54.150Z,9.11
2024-04-14T00:16:20.994Z,9.20
2024-04-14T00:18:48.149Z,9.22
2024-04-14T00:21:15.631Z,9.22
2024-04-14T00:23:42.545Z,9.29
2024-04-14T00:26:09.894Z,9.35
2024-04-14T00:28:37.087Z,9.48
2024-04-14T00:31:03.976Z,9.46
2024-04-14T00:33:32.731Z,8.86
2024-04-14T00:35:59.658Z,8.74
2024-04-14T00:38:26.430Z,8.80
2024-04-14T00:40:53.341Z,8.85
2024-04-14T00:43:20.235Z,8.53
2024-04-14T00:45:47.600Z,8.42
2024-04-14T00:48:14.834Z,8.34
2024-04-14T00:50:41.733Z,8.56
2024-04-14T00:53:09.387Z,8.66
2024-04-14T00:55:36.520Z,8.67
2024-04-14T00:58:04.333Z,8.66
2024-04-14T01:00:31.273Z,8.65
2024-04-14T01:02:58.364Z,8.60
2024-04-14T01:05:25.419Z,8.24
2024-04-14T01:07:52.171Z,8.69
2024-04-14T01:10:19.015Z,8.74
2024-04-14T01:12:45.988Z,8.83
2024-04-14T01:15:13.014Z,8.69
2024-04-14T01:17:39.906Z,8.49
2024-04-14T01:20:07.339Z,8.37
2024-04-14T01:22:34.405Z,8.24
2024-04-14T01:25:08.111Z,7.92
2024-04-14T01:27:35.436Z,7.95
2024-04-14T01:30:06.932Z,7.84
2024-04-14T01:32:40.498Z,7.84
2024-04-14T01:35:10.281Z,8.00
2024-04-14T01:37:37.135Z,7.89
2024-04-14T01:40:04.226Z,7.66
2024-04-14T01:42:31.449Z,7.70
2024-04-14T01:44:58.320Z,7.50
2024-04-14T01:47:25.190Z,7.45
2024-04-14T01:49:51.983Z,7.24
2024-04-14T01:52:18.844Z,7.43
2024-04-14T01:54:45.674Z,7.54
2024-04-14T01:57:12.491Z,7.67
2024-04-14T01:59:39.298Z,7.63
2024-04-14T02:02:06.074Z,7.61
2024-04-14T02:04:34.140Z,7.19
2024-04-14T02:07:01.141Z,6.79
2024-04-14T02:09:28.173Z,6.65
2024-04-14T02:11:54.973Z,6.82
2024-04-14T02:14:21.732Z,7.03
2024-04-14T02:16:48.531Z,6.61
2024-04-14T02:19:15.393Z,6.10
2024-04-14T02:21:43.780Z,6.68
2024-04-14T02:24:11.379Z,7.05
2024-04-14T02:26:38.314Z,7.28
2024-04-14T02:29:05.181Z,7.22
2024-04-14T02:31:32.061Z,6.64
2024-04-14T02:33:58.874Z,6.92
2024-04-14T02:36:28.786Z,7.08
2024-04-14T02:38:56.955Z,7.29
2024-04-14T02:41:23.849Z,7.21
2024-04-14T02:43:50.664Z,7.01
2024-04-14T02:46:17.642Z,6.88
2024-04-14T02:48:49.209Z,6.97
2024-04-14T02:51:16.123Z,6.69
2024-04-14T02:53:42.919Z,6.81
2024-04-14T02:56:09.662Z,6.84
2024-04-14T02:58:36.432Z,6.65
2024-04-14T03:01:03.446Z,6.10
2024-04-14T03:03:30.522Z,6.26
2024-04-14T03:06:04.724Z,6.03
2024-04-14T03:08:31.464Z,5.72
2024-04-14T03:10:58.923Z,6.19
2024-04-14T03:13:25.706Z,6.23
2024-04-14T03:15:53.528Z,6.56
2024-04-14T03:18:20.409Z,6.52
2024-04-14T03:21:00.807Z,6.38
2024-04-14T03:23:27.843Z,6.59
2024-04-14T03:25:54.798Z,6.89
2024-04-14T03:28:26.758Z,7.00
2024-04-14T03:30:54.133Z,7.00
2024-04-14T03:33:20.955Z,6.57
2024-04-14T03:35:47.733Z,6.49
2024-04-14T03:38:14.467Z,6.60
2024-04-14T03:40:41.240Z,6.53
2024-04-14T03:43:08.078Z,6.54
2024-04-14T03:45:34.904Z,6.73
2024-04-14T03:48:01.752Z,6.64
2024-04-14T03:50:28.527Z,6.72
2024-04-14T03:52:55.262Z,6.49
2024-04-14T03:55:22.024Z,6.56
2024-04-14T03:57:48.883Z,6.65
2024-04-14T04:00:15.735Z,6.93
2024-04-14T04:02:42.524Z,6.65
2024-04-14T04:05:12.065Z,6.43
2024-04-14T04:07:39.007Z,6.15
2024-04-14T04:10:05.934Z,6.06
2024-04-14T04:12:32.753Z,6.03
2024-04-14T04:14:59.530Z,6.02
2024-04-14T04:17:26.293Z,6.20
2024-04-14T04:19:53.395Z,6.38
2024-04-14T04:22:20.152Z,6.69
2024-04-14T04:24:46.968Z,6.73
2024-04-14T04:27:13.763Z,6.80
2024-04-14T04:29:40.524Z,6.70
2024-04-14T04:32:07.459Z,6.76
2024-04-14T04:34:34.205Z,6.66
2024-04-14T04:37:01.236Z,6.07
2024-04-14T04:39:28.078Z,5.81
2024-04-14T04:41:54.903Z,6.11
2024-04-14T04:44:21.672Z,6.06
2024-04-14T04:46:48.467Z,6.00
2024-04-14T04:49:15.277Z,6.01
2024-04-14T04:51:42.082Z,6.31
2024-04-14T04:54:08.859Z,6.46
2024-04-14T04:56:35.613Z,6.79
2024-04-14T04:59:02.856Z,7.01
2024-04-14T05:01:29.886Z,7.28
2024-04-14T05:03:56.763Z,7.18
2024-04-14T05:06:23.713Z,7.34
2024-04-14T05:08:50.487Z,7.11
2024-04-14T05:11:17.498Z,7.09
2024-04-14T05:13:44.267Z,7.39
2024-04-14T05:16:11.119Z,7.67
2024-04-14T05:18:38.066Z,7.94
2024-04-14T05:21:05.261Z,8.07
2024-04-14T05:23:32.183Z,8.15
2024-04-14T05:26:00.740Z,8.12
2024-04-14T05:28:27.513Z,8.18
2024-04-14T05:30:54.295Z,8.27
2024-04-14T05:33:21.060Z,8.53
2024-04-14T05:35:57.333Z,8.66
2024-04-14T05:38:24.211Z,8.89
2024-04-14T05:40:51.372Z,8.90
2024-04-14T05:43:18.130Z,9.04
2024-04-14T05:45:45.459Z,9.12
2024-04-14T05:48:12.355Z,9.20
2024-04-14T05:50:39.154Z,9.56
2024-04-14T05:53:06.134Z,9.81
2024-04-14T05:55:32.906Z,9.94
2024-04-14T05:58:00.322Z,9.97
2024-04-14T06:00:27.246Z,10.15
2024-04-14T06:02:54.156Z,10.36
2024-04-14T06:05:20.947Z,10.67
2024-04-14T06:07:47.811Z,10.82
2024-04-14T06:12:41.446Z,11.09
2024-04-14T06:15:08.370Z,11.16
2024-04-14T06:17:35.159Z,11.16
2024-04-14T06:20:02.043Z,11.74
2024-04-14T06:22:32.099Z,12.20
2024-04-14T06:24:59.048Z,12.27
2024-04-14T06:27:26.086Z,12.33
2024-04-14T06:29:52.905Z,12.56
2024-04-14T06:32:19.745Z,12.85
2024-04-14T06:34:46.570Z,13.19
2024-04-14T06:37:13.910Z,13.51
2024-04-14T06:39:40.794Z,13.84
2024-04-14T06:42:09.249Z,13.71
2024-04-14T06:44:36.086Z,13.74
2024-04-14T06:47:03.004Z,13.72
2024-04-14T06:49:30.016Z,14.24
2024-04-14T06:51:58.383Z,14.25
2024-04-14T06:54:25.356Z,14.16
2024-04-14T06:56:52.244Z,14.47
2024-04-14T06:59:19.072Z,14.67
2024-04-14T07:01:45.984Z,14.82
2024-04-14T07:04:13.333Z,14.95
2024-04-14T07:06:40.568Z,15.26
2024-04-14T07:09:07.383Z,15.59
2024-04-14T07:11:34.298Z,15.44
2024-04-14T07:14:01.086Z,15.87
2024-04-14T07:16:27.898Z,16.00
2024-04-14T07:18:54.842Z,16.18
2024-04-14T07:21:21.664Z,16.11
2024-04-14T07:23:48.482Z,16.27
2024-04-14T07:26:15.291Z,16.28
2024-04-14T07:28:42.162Z,16.37
2024-04-14T07:31:08.997Z,16.82
2024-04-14T07:33:36.806Z,17.31
2024-04-14T07:36:03.967Z,16.86
2024-04-14T07:38:30.811Z,17.23
2024-04-14T07:40:57.697Z,17.73
2024-04-14T07:43:24.591Z,17.82
2024-04-14T07:45:51.333Z,18.36
2024-04-14T07:48:18.376Z,18.69
2024-04-14T07:50:45.867Z,18.07
2024-04-14T07:53:13.060Z,18.11
2024-04-14T07:55:39.933Z,18.34
2024-04-14T07:58:06.803Z,19.12
2024-04-14T08:00:33.707Z,19.65
2024-04-14T08:03:00.577Z,19.73
2024-04-14T08:05:27.541Z,18.96
2024-04-14T08:07:55.657Z,19.20
2024-04-14T08:10:22.529Z,19.50
2024-04-14T08:12:49.400Z,19.98
2024-04-14T08:15:16.258Z,20.15
2024-04-14T08:17:43.975Z,20.04
2024-04-14T08:20:12.608Z,19.79
2024-04-14T08:22:39.616Z,20.21
2024-04-14T08:25:06.786Z,19.49
2024-04-14T08:27:33.722Z,20.53
2024-04-14T08:30:00.546Z,21.11
2024-04-14T08:32:27.453Z,21.42
2024-04-14T08:34:54.349Z,21.35
2024-04-14T08:37:21.803Z,21.51
2024-04-14T08:39:48.763Z,21.63
2024-04-14T08:42:15.684Z,21.74
2024-04-14T08:44:42.572Z,21.76
2024-04-14T08:47:10.415Z,22.27
2024-04-14T08:49:41.461Z,22.46
2024-04-14T08:52:08.266Z,22.69
2024-04-14T08:54:35.200Z,21.50
2024-04-14T08:57:02.927Z,21.91
2024-04-14T08:59:30.835Z,21.72
2024-04-14T09:02:02.693Z,22.24
2024-04-14T09:04:29.851Z,22.60
2024-04-14T09:06:56.750Z,23.07
2024-04-14T09:09:23.563Z,23.09
2024-04-14T09:11:54.031Z,22.38
2024-04-14T09:14:20.808Z,22.73
2024-04-14T09:16:48.114Z,23.55
2024-04-14T09:19:15.015Z,23.53
2024-04-14T09:21:42.216Z,23.73
2024-04-14T09:24:08.981Z,23.73
2024-04-14T09:26:35.898Z,23.91
2024-04-14T09:29:05.931Z,24.27
2024-04-14T09:31:36.364Z,24.06
2024-04-14T09:34:06.255Z,23.39
2024-04-14T09:36:33.333Z,24.11
2024-04-14T09:39:00.306Z,24.67
2024-04-14T09:41:27.103Z,24.69
2024-04-14T09:43:54.040Z,24.87
2024-04-14T09:46:20.913Z,24.16
2024-04-14T09:48:47.959Z,24.46
2024-04-14T09:51:15.467Z,24.91
2024-04-14T09:53:42.834Z,25.01
2024-04-14T09:56:09.760Z,24.45
2024-04-14T09:58:36.572Z,25.10
2024-04-14T10:01:12.635Z,25.10
2024-04-14T10:03:40.920Z,25.79
2024-04-14T10:06:07.847Z,25.12
2024-04-14T10:08:34.939Z,25.38
2024-04-14T10:11:05.811Z,25.68
2024-04-14T10:13:51.848Z,25.94
2024-04-14T10:16:19.837Z,26.35
2024-04-14T10:18:48.275Z,26.26
2024-04-14T10:21:19.203Z,26.06
2024-04-14T10:23:56.587Z,26.09
2024-04-14T10:26:23.556Z,25.72
2024-04-14T10:28:54.076Z,25.73
2024-04-14T10:31:30.425Z,26.18
2024-04-14T10:34:09.882Z,26.12
2024-04-14T10:36:37.923Z,25.68
2024-04-14T10:39:08.025Z,26.16
2024-04-14T10:41:36.446Z,26.39
2024-04-14T10:44:03.532Z,26.48
2024-04-14T10:46:30.397Z,26.71
2024-04-14T10:48:57.367Z,26.90
2024-04-14T10:51:24.295Z,27.22
2024-04-14T10:53:54.218Z,27.73
2024-04-14T10:56:21.408Z,27.26
2024-04-14T10:58:48.154Z,26.95
2024-04-14T11:01:15.364Z,26.48
2024-04-14T11:03:42.430Z,26.70
2024-04-14T11:06:09.345Z,26.92
2024-04-14T11:08:36.157Z,26.36
2024-04-14T11:11:03.066Z,26.46
2024-04-14T11:13:30.070Z,26.50
2024-04-14T11:16:00.725Z,26.46
2024-04-14T11:18:30.886Z,26.94
2024-04-14T11:20:57.766Z,27.43
2024-04-14T11:23:24.780Z,27.62
2024-04-14T11:25:51.543Z,28.15
2024-04-14T11:28:18.629Z,27.45
2024-04-14T11:30:45.584Z,28.28
2024-04-14T11:33:12.569Z,27.55
2024-04-14T11:35:39.972Z,26.74
2024-04-14T11:38:07.067Z,27.58
2024-04-14T11:40:34.076Z,28.35
2024-04-14T11:43:00.912Z,29.14
2024-04-14T11:45:27.807Z,29.11
2024-04-14T11:47:54.607Z,28.83
2024-04-14T11:50:21.466Z,28.28
2024-04-14T11:52:49.201Z,28.36
2024-04-14T11:55:15.983Z,28.82
2024-04-14T11:57:42.896Z,28.24
2024-04-14T12:00:10.035Z,27.77
2024-04-14T12:02:36.886Z,28.10
2024-04-14T12:05:03.989Z,28.44
2024-04-14T12:07:30.823Z,28.51
2024-04-14T12:09:57.639Z,28.87
2024-04-14T12:12:24.477Z,28.21
2024-04-14T12:14:51.321Z,29.27
2024-04-14T12:17:18.106Z,29.35
2024-04-14T12:19:45.175Z,28.29
2024-04-14T12:22:12.084Z,28.72
2024-04-14T12:24:38.942Z,28.45
2024-04-14T12:27:05.917Z,27.55
2024-04-14T12:29:32.976Z,27.56
2024-04-14T12:31:59.790Z,27.31
2024-04-14T12:34:26.605Z,27.93
2024-04-14T12:36:53.457Z,27.86
2024-04-14T12:39:27.307Z,28.33
2024-04-14T12:41:57.409Z,29.30
2024-04-14T12:44:24.223Z,29.28
2024-04-14T12:46:51.115Z,29.90
2024-04-14T12:49:27.410Z,30.31
2024-04-14T12:51:55.161Z,30.02
2024-04-14T12:54:22.023Z,29.34
2024-04-14T12:56:48.835Z,28.10
2024-04-14T12:59:15.765Z,27.80
2024-04-14T13:01:42.646Z,27.65
2024-04-14T13:04:09.553Z,27.96
2024-04-14T13:06:36.760Z,27.62
2024-04-14T13:09:03.534Z,27.28
2024-04-14T13:11:30.438Z,26.95
2024-04-14T13:13:57.201Z,27.01
2024-04-14T13:16:24.206Z,26.42
2024-04-14T13:18:51.227Z,26.50
2024-04-14T13:21:18.774Z,26.11
2024-04-14T13:23:49.363Z,26.59
2024-04-14T13:26:16.393Z,27.07
2024-04-14T13:28:43.461Z,27.13
2024-04-14T13:31:10.464Z,27.48
2024-04-14T13:33:37.972Z,27.65
2024-04-14T13:36:05.201Z,28.27
2024-04-14T13:38:32.069Z,28.42
2024-04-14T13:41:02.462Z,27.67
2024-04-14T13:43:29.257Z,27.26
2024-04-14T13:45:56.106Z,27.26
2024-04-14T13:48:22.950Z,27.37
2024-04-14T13:50:49.908Z,27.32
2024-04-14T13:53:16.826Z,27.36
2024-04-14T13:55:43.750Z,27.84
2024-04-14T13:58:10.706Z,27.93
2024-04-14T14:00:38.418Z,27.80
2024-04-14T14:03:05.386Z,27.38
2024-04-14T14:05:32.289Z,27.02
2024-04-14T14:07:59.047Z,27.13
2024-04-14T14:10:25.923Z,27.05
2024-04-14T14:12:52.810Z,27.41
2024-04-14T14:15:20.541Z,27.52
2024-04-14T14:17:47.380Z,27.51
2024-04-14T14:20:14.297Z,27.58
2024-04-14T14:22:41.142Z,27.85
2024-04-14T14:25:08.124Z,27.83
2024-04-14T14:27:35.042Z,27.75
2024-04-14T14:30:01.818Z,28.01
2024-04-14T14:32:31.596Z,28.55
2024-04-14T14:35:17.073Z,28.46
2024-04-14T14:37:43.807Z,28.44
2024-04-14T14:40:10.814Z,28.54
2024-04-14T14:42:37.698Z,28.54
2024-04-14T14:45:04.869Z,28.44
2024-04-14T14:47:32.039Z,27.97
2024-04-14T14:49:58.907Z,27.86
2024-04-14T14:52:25.767Z,28.01
2024-04-14T14:54:52.598Z,28.24
2024-04-14T14:57:19.412Z,28.22
2024-04-14T14:59:46.168Z,28.36
2024-04-14T15:02:12.981Z,28.27
2024-04-14T15:04:40.011Z,28.28
2024-04-14T15:07:06.935Z,28.26
2024-04-14T15:09:33.872Z,28.15
2024-04-14T15:12:00.699Z,28.12
2024-04-14T15:14:27.504Z,28.36
2024-04-14T15:16:54.379Z,28.14
2024-04-14T15:19:21.244Z,28.10
2024-04-14T15:21:48.138Z,28.23
2024-04-14T15:24:14.986Z,28.34
2024-04-14T15:26:41.812Z,28.48
2024-04-14T15:29:08.714Z,28.55
2024-04-14T15:31:35.644Z,28.47
2024-04-14T15:34:02.525Z,28.39
2024-04-14T15:36:29.360Z,28.38
2024-04-14T15:38:56.110Z,28.43
2024-04-14T15:41:22.978Z,27.89
2024-04-14T15:43:49.967Z,27.83
2024-04-14T15:46:16.932Z,27.86
2024-04-14T15:48:43.817Z,27.74
2024-04-14T15:51:18.363Z,27.75
2024-04-14T15:53:47.707Z,27.60
2024-04-14T15:56:14.565Z,27.58
2024-04-14T15:58:41.426Z,27.60
2024-04-14T16:01:08.374Z,27.44
2024-04-14T16:03:35.423Z,27.42
2024-04-14T16:06:02.239Z,27.38
2024-04-14T16:08:29.044Z,27.21
2024-04-14T16:11:06.149Z,27.22
2024-04-14T16:13:35.303Z,27.11
2024-04-14T16:16:06.966Z,27.03
2024-04-14T16:18:34.534Z,26.72
2024-04-14T16:21:01.568Z,26.43
2024-04-14T16:23:39.367Z,26.37
2024-04-14T16:26:06.235Z,26.32
2024-04-14T16:28:33.454Z,26.03
2024-04-14T16:31:00.765Z,25.83
2024-04-14T16:33:27.663Z,25.71
2024-04-14T16:35:54.550Z,25.49
2024-04-14T16:38:21.292Z,25.35
2024-04-14T16:40:48.949Z,25.06
2024-04-14T16:43:15.811Z,25.09
2024-04-14T16:45:42.746Z,24.57
2024-04-14T16:48:09.623Z,24.18
2024-04-14T16:50:36.757Z,23.68
2024-04-14T16:53:03.666Z,23.33
2024-04-14T16:55:31.120Z,22.71
2024-04-14T16:57:57.990Z,22.53
2024-04-14T17:00:24.822Z,22.39
2024-04-14T17:02:51.727Z,22.52
2024-04-14T17:05:18.571Z,22.29
2024-04-14T17:07:45.462Z,22.09
2024-04-14T17:10:12.348Z,22.26
2024-04-14T17:12:40.390Z,22.07
2024-04-14T17:15:08.289Z,21.79
2024-04-14T17:17:35.615Z,21.50
2024-04-14T17:20:03.228Z,21.23
2024-04-14T17:22:30.585Z,21.32
2024-04-14T17:24:57.461Z,21.10
2024-04-14T17:27:24.320Z,20.94
2024-04-14T17:29:51.136Z,20.75
2024-04-14T17:32:18.898Z,20.09
2024-04-14T17:34:46.033Z,20.14
2024-04-14T17:37:12.898Z,20.00
2024-04-14T17:39:39.744Z,19.39
2024-04-14T17:42:06.588Z,19.19
2024-04-14T17:44:33.547Z,19.09
2024-04-14T17:47:00.381Z,18.99
2024-04-14T17:49:27.282Z,18.23
2024-04-14T17:51:54.084Z,17.95
2024-04-14T17:54:20.983Z,16.69
2024-04-14T17:56:52.306Z,16.98
2024-04-14T17:59:19.295Z,17.22
2024-04-14T18:01:47.051Z,17.38
2024-04-14T18:04:13.979Z,17.52
2024-04-14T18:06:40.929Z,17.37
2024-04-14T18:09:07.916Z,17.36
2024-04-14T18:11:34.739Z,17.66
2024-04-14T18:14:01.746Z,17.55
2024-04-14T18:16:28.600Z,17.64
2024-04-14T18:18:55.472Z,17.40
2024-04-14T18:21:22.353Z,17.44
2024-04-14T18:23:49.211Z,17.30
2024-04-14T18:26:16.035Z,17.27
2024-04-14T18:28:44.790Z,16.91
2024-04-14T18:31:11.652Z,17.20
2024-04-14T18:33:38.570Z,17.16
2024-04-14T18:36:14.403Z,17.17
2024-04-14T18:38:45.526Z,17.28
2024-04-14T18:41:12.343Z,17.33
2024-04-14T18:43:39.684Z,17.15
2024-04-14T18:46:06.720Z,17.02
2024-04-14T18:48:40.377Z,16.37
2024-04-14T18:51:07.541Z,16.38
2024-04-14T18:53:34.390Z,15.91
2024-04-14T18:56:02.278Z,15.89
2024-04-14T18:58:32.617Z,16.28
2024-04-14T19:01:00.186Z,16.13
2024-04-14T19:03:27.082Z,16.17
2024-04-14T19:05:53.882Z,16.08
2024-04-14T19:08:24.136Z,16.05
2024-04-14T19:10:50.976Z,15.77
2024-04-14T19:13:17.824Z,15.58
2024-04-14T19:15:48.901Z,15.62
2024-04-14T19:18:16.281Z,15.50
2024-04-14T19:20:43.172Z,15.32
2024-04-14T19:23:10.000Z,15.35
2024-04-14T19:25:36.895Z,15.33
2024-04-14T19:28:04.368Z,14.94
2024-04-14T19:30:31.260Z,14.85
2024-04-14T19:32:58.102Z,14.51
2024-04-14T19:35:25.862Z,14.00
2024-04-14T19:37:55.014Z,13.88
2024-04-14T19:40:21.913Z,13.81
2024-04-14T19:42:48.722Z,13.87
2024-04-14T19:45:15.604Z,13.43
2024-04-14T19:47:43.161Z,13.53
2024-04-14T19:50:09.970Z,13.41
2024-04-14T19:52:36.837Z,13.11
2024-04-14T19:55:06.115Z,13.12
2024-04-14T19:57:33.069Z,13.26
2024-04-14T19:59:59.831Z,13.64
2024-04-14T20:02:26.695Z,13.69
2024-04-14T20:04:53.584Z,13.46
2024-04-14T20:07:20.420Z,13.52
2024-04-14T20:09:47.248Z,13.55
2024-04-14T20:12:14.055Z,13.72
2024-04-14T20:14:40.919Z,13.66
2024-04-14T20:17:07.754Z,13.70
2024-04-14T20:19:34.677Z,13.64
2024-04-14T20:22:01.508Z,13.72
2024-04-14T20:24:28.679Z,13.68
2024-04-14T20:26:55.551Z,13.55
2024-04-14T20:29:22.417Z,13.29
2024-04-14T20:31:49.167Z,13.05
2024-04-14T20:34:16.008Z,12.97
2024-04-14T20:36:42.856Z,12.97
2024-04-14T20:39:10.850Z,13.11
2024-04-14T20:41:37.736Z,13.25
2024-04-14T20:44:04.538Z,12.91
2024-04-14T20:46:31.379Z,12.89
2024-04-14T20:48:58.316Z,12.82
2024-04-14T20:51:25.183Z,12.69
2024-04-14T20:53:51.954Z,12.35
2024-04-14T20:56:18.831Z,12.10
2024-04-14T20:58:49.502Z,12.09
2024-04-14T21:01:16.450Z,11.98
2024-04-14T21:03:43.365Z,11.97
2024-04-14T21:06:10.570Z,11.85
2024-04-14T21:08:37.399Z,11.80
2024-04-14T21:11:04.864Z,11.99
2024-04-14T21:13:31.679Z,11.63
2024-04-14T21:15:58.501Z,11.63
2024-04-14T21:18:25.476Z,11.14
2024-04-14T21:20:55.753Z,11.22
2024-04-14T21:23:22.755Z,11.39
2024-04-14T21:25:49.561Z,10.47
2024-04-14T21:28:16.454Z,10.24
2024-04-14T21:30:51.621Z,10.80
2024-04-14T21:33:18.551Z,10.99
2024-04-14T21:35:45.418Z,10.90
2024-04-14T21:38:14.263Z,11.01
2024-04-14T21:40:48.124Z,10.81
2024-04-14T21:43:15.060Z,10.92
2024-04-14T21:45:41.994Z,11.05
2024-04-14T21:48:09.183Z,11.14
2024-04-14T21:50:36.008Z,10.83
2024-04-14T21:53:02.900Z,10.82
2024-04-14T21:55:29.690Z,10.84
2024-04-14T21:57:56.462Z,10.90
2024-04-14T22:00:23.268Z,10.74
2024-04-14T22:02:50.120Z,10.80
2024-04-14T22:05:17.105Z,10.57
2024-04-14T22:07:43.984Z,10.46
2024-04-14T22:10:10.890Z,10.00
2024-04-14T22:12:37.815Z,9.59
2024-04-14T22:15:05.041Z,9.55
2024-04-14T22:17:32.014Z,9.37
2024-04-14T22:19:58.917Z,9.28
2024-04-14T22:22:25.700Z,9.61
2024-04-14T22:24:52.793Z,9.81
2024-04-14T22:27:19.635Z,9.80
2024-04-14T22:29:46.408Z,10.18
2024-04-14T22:32:13.481Z,9.60
2024-04-14T22:34:41.615Z,9.22
2024-04-14T22:37:08.549Z,9.28
2024-04-14T22:39:35.406Z,9.30
2024-04-14T22:42:02.137Z,9.20
2024-04-14T22:44:28.989Z,9.28
2024-04-14T22:46:55.922Z,9.21
2024-04-14T22:49:22.793Z,8.96
2024-04-14T22:51:49.626Z,9.04
2024-04-14T22:54:16.830Z,9.41
2024-04-14T22:56:43.698Z,9.78
2024-04-14T22:59:10.529Z,9.96
2024-04-14T23:01:37.462Z,9.97
2024-04-14T23:04:04.424Z,9.69
2024-04-14T23:06:31.344Z,9.00
2024-04-14T23:08:58.135Z,9.22
2024-04-14T23:11:25.003Z,9.33
2024-04-14T23:13:51.852Z,9.03
2024-04-14T23:16:18.698Z,9.18
2024-04-14T23:18:45.550Z,9.01
2024-04-14T23:21:12.433Z,8.80
2024-04-14T23:23:39.248Z,8.89
2024-04-14T23:26:06.025Z,8.94
2024-04-14T23:28:32.842Z,8.87
2024-04-14T23:30:59.723Z,8.77
2024-04-14T23:33:26.655Z,8.58
2024-04-14T23:35:53.410Z,8.51
2024-04-14T23:38:20.229Z,8.67
2024-04-14T23:40:47.157Z,8.48
2024-04-14T23:43:14.183Z,8.75
2024-04-14T23:45:41.894Z,8.97
2024-04-14T23:48:08.759Z,9.01
2024-04-14T23:50:35.606Z,8.87
2024-04-14T23:53:02.377Z,8.87
2024-04-14T23:55:29.255Z,8.87
2024-04-14T23:57:56.039Z,8.81
